createdAt,value
2019-01-08T00:00:58.387Z,101205.78
2019-01-08T00:02:05.052Z,101201.12
2019-01-08T00:03:11.737Z,101198.14
2019-01-08T00:04:18.842Z,101204.95
2019-01-08T00:05:25.469Z,101206.22
2019-01-08T00:06:32.176Z,101198.58
2019-01-08T00:07:39.191Z,101199.84
2019-01-08T00:08:45.822Z,101198.58
2019-01-08T00:09:52.499Z,101198.14
2019-01-08T00:10:59.147Z,101196.03
2019-01-08T00:12:05.926Z,101191.77
2019-01-08T00:13:13.095Z,101192.60
2019-01-08T00:14:19.746Z,101187.51
2019-01-08T00:15:26.796Z,101187.50
2019-01-08T00:16:33.707Z,101184.51
2019-01-08T00:17:40.721Z,101185.78
2019-01-08T00:18:47.355Z,101180.69
2019-01-08T00:19:54.787Z,101176.47
2019-01-08T00:21:01.466Z,101178.58
2019-01-08T00:22:08.535Z,101170.09
2019-01-08T00:23:15.156Z,101173.92
2019-01-08T00:24:22.162Z,101176.87
2019-01-08T00:25:28.924Z,101170.92
2019-01-08T00:26:35.981Z,101176.46
2019-01-08T00:27:42.652Z,101162.88
2019-01-08T00:28:49.725Z,101164.56
2019-01-08T00:29:56.734Z,101155.64
2019-01-08T00:31:03.409Z,101162.45
2019-01-08T00:32:10.681Z,101160.73
2019-01-08T00:33:17.575Z,101158.19
2019-01-08T00:34:24.505Z,101157.73
2019-01-08T00:35:31.154Z,101162.44
2019-01-08T00:36:38.226Z,101156.42
2019-01-08T00:37:44.895Z,101154.73
2019-01-08T00:38:51.632Z,101150.48
2019-01-08T00:39:59.000Z,101146.26
2019-01-08T00:41:05.639Z,101144.98
2019-01-08T00:42:12.672Z,101144.54
2019-01-08T00:43:19.348Z,101145.77
2019-01-08T00:44:26.625Z,101145.37
2019-01-08T00:45:33.953Z,101138.11
2019-01-08T00:46:40.999Z,101144.09
2019-01-08T00:47:47.664Z,101139.00
2019-01-08T00:48:54.798Z,101140.71
2019-01-08T00:50:01.486Z,101138.56
2019-01-08T00:51:08.627Z,101142.39
2019-01-08T00:52:15.262Z,101133.46
2019-01-08T00:53:22.576Z,101132.63
2019-01-08T00:54:29.195Z,101130.06
2019-01-08T00:55:36.164Z,101128.80
2019-01-08T00:56:42.863Z,101124.98
2019-01-08T00:57:49.547Z,101124.98
2019-01-08T00:58:56.261Z,101130.08
2019-01-08T01:00:02.925Z,101135.17
2019-01-08T01:01:09.557Z,101124.55
2019-01-08T01:02:16.307Z,101126.27
2019-01-08T01:03:23.336Z,101121.17
2019-01-08T01:04:29.984Z,101127.59
2019-01-08T01:05:37.117Z,101120.38
2019-01-08T01:06:43.776Z,101121.27
2019-01-08T01:07:50.532Z,101114.91
2019-01-08T01:08:57.178Z,101127.66
2019-01-08T01:10:04.038Z,101114.52
2019-01-08T01:11:10.751Z,101111.09
2019-01-08T01:12:17.370Z,101111.09
2019-01-08T01:13:24.498Z,101108.55
2019-01-08T01:14:31.632Z,101109.86
2019-01-08T01:15:38.286Z,101100.51
2019-01-08T01:16:44.924Z,101101.79
2019-01-08T01:17:51.948Z,101107.32
2019-01-08T01:18:58.920Z,101106.92
2019-01-08T01:20:06.599Z,101100.95
2019-01-08T01:21:13.286Z,101089.48
2019-01-08T01:22:20.061Z,101099.68
2019-01-08T01:23:27.337Z,101097.17
2019-01-08T01:24:34.415Z,101095.06
2019-01-08T01:25:42.177Z,101093.80
2019-01-08T01:26:48.807Z,101106.53
2019-01-08T01:27:55.441Z,101102.33
2019-01-08T01:29:02.080Z,101095.13
2019-01-08T01:30:10.029Z,101097.27
2019-01-08T01:31:16.687Z,101089.63
2019-01-08T01:32:23.425Z,101090.47
2019-01-08T01:33:30.099Z,101090.02
2019-01-08T01:34:37.122Z,101091.30
2019-01-08T01:35:43.903Z,101086.60
2019-01-08T01:36:50.538Z,101074.73
2019-01-08T01:37:57.377Z,101071.74
2019-01-08T01:39:04.372Z,101078.11
2019-01-08T01:40:11.031Z,101078.52
2019-01-08T01:41:17.777Z,101068.33
2019-01-08T01:42:24.841Z,101065.82
2019-01-08T01:43:31.854Z,101072.19
2019-01-08T01:44:38.854Z,101070.91
2019-01-08T01:45:45.923Z,101063.72
2019-01-08T01:46:53.666Z,101068.81
2019-01-08T01:48:00.932Z,101063.28
2019-01-08T01:49:07.907Z,101069.25
2019-01-08T01:50:14.850Z,101079.00
2019-01-08T01:51:21.531Z,101073.91
2019-01-08T01:52:28.156Z,101061.56
2019-01-08T01:53:35.164Z,101064.56
2019-01-08T01:54:41.811Z,101060.73
2019-01-08T01:55:48.460Z,101057.35
2019-01-08T01:56:55.456Z,101058.62
2019-01-08T01:58:02.516Z,101056.52
2019-01-08T01:59:09.235Z,101051.43
2019-01-08T02:00:16.198Z,101057.84
2019-01-08T02:01:22.928Z,101048.05
2019-01-08T02:02:29.551Z,101055.25
2019-01-08T02:03:36.191Z,101050.16
2019-01-08T02:04:43.491Z,101045.06
2019-01-08T02:05:50.515Z,101030.21
2019-01-08T02:06:57.779Z,101040.80
2019-01-08T02:08:04.849Z,101045.45
2019-01-08T02:09:11.804Z,101036.53
2019-01-08T02:10:18.881Z,101039.06
2019-01-08T02:11:25.533Z,101041.58
2019-01-08T02:12:32.212Z,101047.50
2019-01-08T02:13:38.914Z,101047.93
2019-01-08T02:14:45.863Z,101055.56
2019-01-08T02:15:53.211Z,101041.95
2019-01-08T02:16:59.871Z,101042.78
2019-01-08T02:18:07.338Z,101041.52
2019-01-08T02:19:14.302Z,101030.87
2019-01-08T02:20:21.467Z,101038.05
2019-01-08T02:21:28.299Z,101040.61
2019-01-08T02:22:35.335Z,101038.50
2019-01-08T02:23:41.986Z,101035.05
2019-01-08T02:24:49.084Z,101028.23
2019-01-08T02:25:55.832Z,101035.88
2019-01-08T02:27:02.992Z,101030.73
2019-01-08T02:28:09.631Z,101034.55
2019-01-08T02:29:16.723Z,101023.50
2019-01-08T02:30:23.972Z,101027.72
2019-01-08T02:31:30.709Z,101023.89
2019-01-08T02:32:37.847Z,101022.61
2019-01-08T02:33:44.506Z,101026.43
2019-01-08T02:34:51.225Z,101019.19
2019-01-08T02:35:57.856Z,101022.19
2019-01-08T02:37:04.805Z,101014.98
2019-01-08T02:38:11.847Z,101013.25
2019-01-08T02:39:18.479Z,101011.14
2019-01-08T02:40:25.852Z,101011.14
2019-01-08T02:41:33.536Z,101016.25
2019-01-08T02:42:40.775Z,100997.52
2019-01-08T02:43:47.498Z,101005.60
2019-01-08T02:44:54.184Z,100999.69
2019-01-08T02:46:01.306Z,101006.06
2019-01-08T02:47:08.260Z,101004.84
2019-01-08T02:48:14.994Z,101006.95
2019-01-08T02:49:21.643Z,101009.94
2019-01-08T02:50:28.322Z,101012.05
2019-01-08T02:51:35.034Z,101003.14
2019-01-08T02:52:42.031Z,101003.13
2019-01-08T02:53:48.992Z,101013.31
2019-01-08T02:54:56.112Z,101014.61
2019-01-08T02:56:03.315Z,101004.03
2019-01-08T02:57:10.001Z,100997.27
2019-01-08T02:58:16.955Z,100981.60
2019-01-08T02:59:25.275Z,100986.29
2019-01-08T03:00:32.130Z,100979.53
2019-01-08T03:01:39.456Z,100970.23
2019-01-08T03:02:46.498Z,100968.06
2019-01-08T03:03:53.770Z,100965.14
2019-01-08T03:05:00.795Z,100969.84
2019-01-08T03:06:07.439Z,100969.38
2019-01-08T03:07:14.295Z,100962.14
2019-01-08T03:08:21.658Z,100965.97
2019-01-08T03:09:28.284Z,100962.59
2019-01-08T03:10:35.406Z,100955.41
2019-01-08T03:11:42.457Z,100969.41
2019-01-08T03:12:49.127Z,100963.04
2019-01-08T03:13:55.857Z,100950.74
2019-01-08T03:15:02.527Z,100954.12
2019-01-08T03:16:09.565Z,100939.30
2019-01-08T03:17:16.240Z,100945.22
2019-01-08T03:18:23.576Z,100957.12
2019-01-08T03:19:30.659Z,100972.83
2019-01-08T03:20:37.956Z,100977.10
2019-01-08T03:21:44.658Z,100982.16
2019-01-08T03:22:51.318Z,100969.94
2019-01-08T03:23:58.035Z,100974.41
2019-01-08T03:25:04.858Z,100986.41
2019-01-08T03:26:11.528Z,100979.31
2019-01-08T03:27:18.511Z,100947.95
2019-01-08T03:28:25.160Z,100947.55
2019-01-08T03:29:33.742Z,100935.71
2019-01-08T03:30:40.284Z,100944.98
2019-01-08T03:31:46.934Z,100920.45
2019-01-08T03:32:53.991Z,100921.25
2019-01-08T03:34:00.996Z,100935.23
2019-01-08T03:35:07.955Z,100897.09
2019-01-08T03:36:14.639Z,100919.52
2019-01-08T03:37:21.919Z,100916.56
2019-01-08T03:38:28.658Z,100913.16
2019-01-08T03:39:35.294Z,100912.72
2019-01-08T03:40:42.342Z,100908.03
2019-01-08T03:41:49.209Z,100911.02
2019-01-08T03:42:55.884Z,100902.55
2019-01-08T03:44:02.638Z,100894.05
2019-01-08T03:45:09.663Z,100906.36
2019-01-08T03:46:16.337Z,100899.17
2019-01-08T03:47:23.515Z,100889.00
2019-01-08T03:48:30.491Z,100900.84
2019-01-08T03:49:37.180Z,100891.06
2019-01-08T03:50:44.203Z,100893.20
2019-01-08T03:51:50.860Z,100893.21
2019-01-08T03:52:57.953Z,100891.94
2019-01-08T03:54:04.960Z,100888.13
2019-01-08T03:55:11.986Z,100884.30
2019-01-08T03:56:19.050Z,100885.98
2019-01-08T03:57:25.695Z,100867.78
2019-01-08T03:58:32.783Z,100860.14
2019-01-08T03:59:42.021Z,100869.05
2019-01-08T04:00:48.448Z,100865.62
2019-01-08T04:01:56.125Z,100867.73
2019-01-08T04:03:04.471Z,100871.98
2019-01-08T04:04:11.226Z,100868.17
2019-01-08T04:05:18.197Z,100876.20
2019-01-08T04:06:25.176Z,100871.95
2019-01-08T04:07:31.875Z,100863.47
2019-01-08T04:08:38.544Z,100859.22
2019-01-08T04:09:46.036Z,100858.78
2019-01-08T04:10:52.747Z,100851.98
2019-01-08T04:11:59.375Z,100858.33
2019-01-08T04:13:06.946Z,100846.87
2019-01-08T04:14:13.957Z,100849.81
2019-01-08T04:15:20.658Z,100851.47
2019-01-08T04:16:32.980Z,100848.48
2019-01-08T04:17:39.946Z,100856.95
2019-01-08T04:18:46.639Z,100849.31
2019-01-08T04:19:53.732Z,100848.86
2019-01-08T04:21:00.496Z,100848.02
2019-01-08T04:22:07.436Z,100856.48
2019-01-08T04:23:14.413Z,100848.41
2019-01-08T04:24:21.391Z,100841.22
2019-01-08T04:25:28.131Z,100828.05
2019-01-08T04:26:35.094Z,100840.34
2019-01-08T04:27:41.797Z,100847.96
2019-01-08T04:28:48.903Z,100826.77
2019-01-08T04:29:55.581Z,100840.72
2019-01-08T04:31:02.232Z,100829.25
2019-01-08T04:32:08.942Z,100825.43
2019-01-08T04:33:16.012Z,100822.44
2019-01-08T04:34:22.706Z,100825.00
2019-01-08T04:35:29.371Z,100836.06
2019-01-08T04:36:36.332Z,100824.17
2019-01-08T04:37:43.035Z,100823.36
2019-01-08T04:38:50.130Z,100825.95
2019-01-08T04:39:56.845Z,100820.44
2019-01-08T04:41:03.531Z,100812.41
2019-01-08T04:42:10.446Z,100811.97
2019-01-08T04:43:17.359Z,100811.14
2019-01-08T04:44:24.699Z,100807.75
2019-01-08T04:45:31.685Z,100810.30
2019-01-08T04:46:38.354Z,100816.66
2019-01-08T04:47:45.571Z,100812.84
2019-01-08T04:48:52.215Z,100815.39
2019-01-08T04:49:58.873Z,100810.69
2019-01-08T04:51:05.539Z,100807.30
2019-01-08T04:52:12.568Z,100809.80
2019-01-08T04:53:19.313Z,100792.85
2019-01-08T04:54:26.278Z,100801.76
2019-01-08T04:55:33.582Z,100800.05
2019-01-08T04:56:40.862Z,100798.34
2019-01-08T04:57:47.963Z,100807.25
2019-01-08T04:58:54.940Z,100807.25
2019-01-08T05:00:02.258Z,100804.71
2019-01-08T05:01:09.045Z,100798.79
2019-01-08T05:02:16.419Z,100798.78
2019-01-08T05:03:23.112Z,100782.23
2019-01-08T05:04:30.111Z,100788.59
2019-01-08T05:05:36.786Z,100786.03
2019-01-08T05:06:43.643Z,100786.87
2019-01-08T05:07:50.380Z,100785.15
2019-01-08T05:08:57.023Z,100784.25
2019-01-08T05:10:04.550Z,100784.64
2019-01-08T05:11:11.220Z,100784.69
2019-01-08T05:12:18.418Z,100782.52
2019-01-08T05:13:25.195Z,100782.92
2019-01-08T05:14:32.223Z,100790.98
2019-01-08T05:15:38.912Z,100777.82
2019-01-08T05:16:45.923Z,100777.81
2019-01-08T05:17:52.717Z,100772.27
2019-01-08T05:18:59.511Z,100773.54
2019-01-08T05:20:06.830Z,100776.97
2019-01-08T05:21:13.513Z,100768.91
2019-01-08T05:22:20.524Z,100767.18
2019-01-08T05:23:27.204Z,100767.16
2019-01-08T05:24:33.836Z,100773.53
2019-01-08T05:25:40.910Z,100764.14
2019-01-08T05:26:47.964Z,100766.70
2019-01-08T05:27:55.051Z,100772.19
2019-01-08T05:29:01.986Z,100773.45
2019-01-08T05:30:09.971Z,100777.28
2019-01-08T05:31:16.624Z,100761.59
2019-01-08T05:32:23.653Z,100771.81
2019-01-08T05:33:30.907Z,100760.33
2019-01-08T05:34:37.627Z,100761.19
2019-01-08T05:35:44.296Z,100759.07
2019-01-08T05:36:51.072Z,100766.31
2019-01-08T05:37:57.764Z,100758.26
2019-01-08T05:39:05.678Z,100758.70
2019-01-08T05:40:12.353Z,100751.06
2019-01-08T05:41:19.440Z,100753.16
2019-01-08T05:42:26.207Z,100739.98
2019-01-08T05:43:33.267Z,100745.95
2019-01-08T05:44:39.952Z,100754.86
2019-01-08T05:45:46.613Z,100755.27
2019-01-08T05:46:53.281Z,100739.59
2019-01-08T05:48:00.268Z,100754.86
2019-01-08T05:49:06.988Z,100747.18
2019-01-08T05:50:14.014Z,100741.69
2019-01-08T05:51:20.648Z,100757.41
2019-01-08T05:52:27.393Z,100741.68
2019-01-08T05:53:34.427Z,100749.72
2019-01-08T05:54:41.163Z,100743.34
2019-01-08T05:55:48.232Z,100747.61
2019-01-08T05:56:54.892Z,100739.13
2019-01-08T05:58:01.999Z,100742.98
2019-01-08T05:59:09.731Z,100728.17
2019-01-08T06:00:16.827Z,100715.08
2019-01-08T06:01:23.935Z,100742.68
2019-01-08T06:02:30.955Z,100748.19
2019-01-08T06:03:38.603Z,100749.53
2019-01-08T06:04:45.702Z,100731.33
2019-01-08T06:05:52.394Z,100741.95
2019-01-08T06:06:59.052Z,100739.81
2019-01-08T06:08:05.844Z,100737.72
2019-01-08T06:09:13.111Z,100737.77
2019-01-08T06:10:19.872Z,100735.63
2019-01-08T06:11:26.697Z,100705.13
2019-01-08T06:12:33.958Z,100733.08
2019-01-08T06:13:41.014Z,100730.12
2019-01-08T06:14:47.996Z,100736.88
2019-01-08T06:15:54.640Z,100724.59
2019-01-08T06:17:01.460Z,100724.98
2019-01-08T06:18:08.127Z,100727.52
2019-01-08T06:19:14.847Z,100721.55
2019-01-08T06:20:22.487Z,100729.61
2019-01-08T06:21:29.790Z,100725.41
2019-01-08T06:22:36.575Z,100713.05
2019-01-08T06:23:43.486Z,100710.49
2019-01-08T06:24:50.870Z,100721.95
2019-01-08T06:25:57.956Z,100724.89
2019-01-08T06:27:04.625Z,100710.88
2019-01-08T06:28:12.229Z,100716.80
2019-01-08T06:29:19.290Z,100713.41
2019-01-08T06:30:26.572Z,100726.09
2019-01-08T06:31:33.233Z,100718.88
2019-01-08T06:32:40.269Z,100717.16
2019-01-08T06:33:47.395Z,100706.14
2019-01-08T06:34:54.037Z,100715.05
2019-01-08T06:36:01.038Z,100714.16
2019-01-08T06:37:07.761Z,100703.98
2019-01-08T06:38:15.424Z,100709.51
2019-01-08T06:39:22.664Z,100703.53
2019-01-08T06:40:29.390Z,100681.02
2019-01-08T06:41:36.468Z,100706.89
2019-01-08T06:42:43.130Z,100703.89
2019-01-08T06:43:49.863Z,100712.41
2019-01-08T06:44:57.695Z,100709.42
2019-01-08T06:46:04.328Z,100710.25
2019-01-08T06:47:11.335Z,100703.02
2019-01-08T06:48:18.024Z,100710.61
2019-01-08T06:49:24.848Z,100705.13
2019-01-08T06:50:31.519Z,100702.20
2019-01-08T06:51:38.530Z,100707.30
2019-01-08T06:52:45.574Z,100715.32
2019-01-08T06:53:52.549Z,100698.75
2019-01-08T06:55:00.268Z,100707.67
2019-01-08T06:56:07.523Z,100673.69
2019-01-08T06:57:14.216Z,100689.38
2019-01-08T06:58:21.172Z,100700.83
2019-01-08T06:59:28.246Z,100695.38
2019-01-08T07:00:35.324Z,100694.95
2019-01-08T07:01:42.033Z,100687.73
2019-01-08T07:02:48.671Z,100681.37
2019-01-08T07:03:55.362Z,100698.70
2019-01-08T07:05:02.201Z,100687.67
2019-01-08T07:06:09.180Z,100697.87
2019-01-08T07:07:15.864Z,100678.78
2019-01-08T07:08:22.566Z,100683.48
2019-01-08T07:09:29.262Z,100701.69
2019-01-08T07:10:36.887Z,100681.37
2019-01-08T07:11:43.524Z,100677.11
2019-01-08T07:12:50.927Z,100690.66
2019-01-08T07:13:57.633Z,100675.77
2019-01-08T07:15:04.277Z,100688.92
2019-01-08T07:16:10.970Z,100678.33
2019-01-08T07:17:17.983Z,100687.28
2019-01-08T07:18:24.607Z,100677.95
2019-01-08T07:19:31.677Z,100669.87
2019-01-08T07:20:38.343Z,100677.50
2019-01-08T07:21:45.066Z,100664.40
2019-01-08T07:22:52.093Z,100666.50
2019-01-08T07:23:59.096Z,100664.40
2019-01-08T07:25:06.175Z,100668.66
2019-01-08T07:26:12.903Z,100672.93
2019-01-08T07:27:19.888Z,100672.13
2019-01-08T07:28:26.953Z,100675.13
2019-01-08T07:29:34.275Z,100676.39
2019-01-08T07:30:41.659Z,100672.22
2019-01-08T07:31:49.068Z,100666.31
2019-01-08T07:32:56.486Z,100677.34
2019-01-08T07:34:03.187Z,100679.06
2019-01-08T07:35:09.841Z,100679.97
2019-01-08T07:36:16.475Z,100666.81
2019-01-08T07:37:23.803Z,100682.54
2019-01-08T07:38:31.205Z,100668.55
2019-01-08T07:39:37.894Z,100660.91
2019-01-08T07:40:45.892Z,100660.52
2019-01-08T07:41:53.152Z,100670.27
2019-01-08T07:43:00.099Z,100665.19
2019-01-08T07:44:07.069Z,100661.38
2019-01-08T07:45:13.714Z,100663.52
2019-01-08T07:46:20.740Z,100663.98
2019-01-08T07:47:27.685Z,100656.78
2019-01-08T07:48:34.339Z,100661.45
2019-01-08T07:49:41.749Z,100655.98
2019-01-08T07:50:48.821Z,100653.00
2019-01-08T07:51:55.797Z,100647.52
2019-01-08T07:53:02.431Z,100660.24
2019-01-08T07:54:09.510Z,100660.64
2019-01-08T07:55:16.502Z,100658.55
2019-01-08T07:56:23.540Z,100657.70
2019-01-08T07:57:30.432Z,100650.08
2019-01-08T07:58:37.453Z,100660.24
2019-01-08T07:59:44.524Z,100653.45
2019-01-08T08:00:51.246Z,100634.81
2019-01-08T08:01:57.922Z,100640.72
2019-01-08T08:03:06.181Z,100640.72
2019-01-08T08:04:13.385Z,100662.33
2019-01-08T08:05:20.387Z,100651.28
2019-01-08T08:06:27.629Z,100654.28
2019-01-08T08:07:34.280Z,100652.16
2019-01-08T08:08:40.991Z,100652.16
2019-01-08T08:09:47.877Z,100644.08
2019-01-08T08:10:54.837Z,100636.89
2019-01-08T08:12:01.861Z,100638.16
2019-01-08T08:13:08.534Z,100642.38
2019-01-08T08:14:15.526Z,100650.45
2019-01-08T08:15:22.599Z,100642.82
2019-01-08T08:16:29.575Z,100636.45
2019-01-08T08:17:36.324Z,100630.91
2019-01-08T08:18:42.945Z,100625.44
2019-01-08T08:19:50.311Z,100634.34
2019-01-08T08:20:57.365Z,100631.37
2019-01-08T08:22:04.466Z,100630.53
2019-01-08T08:23:11.116Z,100627.98
2019-01-08T08:24:17.814Z,100633.46
2019-01-08T08:25:24.919Z,100629.25
2019-01-08T08:26:31.961Z,100630.93
2019-01-08T08:27:38.911Z,100631.34
2019-01-08T08:28:45.992Z,100616.94
2019-01-08T08:29:52.643Z,100620.36
2019-01-08T08:30:59.341Z,100626.28
2019-01-08T08:32:06.371Z,100626.27
2019-01-08T08:33:13.109Z,100624.11
2019-01-08T08:34:19.963Z,100617.36
2019-01-08T08:35:27.230Z,100613.09
2019-01-08T08:36:33.895Z,100613.92
2019-01-08T08:37:41.779Z,100608.44
2019-01-08T08:38:48.548Z,100615.64
2019-01-08T08:39:55.646Z,100614.37
2019-01-08T08:41:02.321Z,100626.25
2019-01-08T08:42:09.074Z,100607.53
2019-01-08T08:43:15.917Z,100607.09
2019-01-08T08:44:22.587Z,100610.07
2019-01-08T08:45:29.632Z,100608.79
2019-01-08T08:46:36.710Z,100620.19
2019-01-08T08:47:43.335Z,100614.23
2019-01-08T08:48:50.595Z,100601.50
2019-01-08T08:49:57.911Z,100612.89
2019-01-08T08:51:04.993Z,100619.23
2019-01-08T08:52:12.036Z,100614.96
2019-01-08T08:53:18.671Z,100621.25
2019-01-08T08:54:25.745Z,100618.31
2019-01-08T08:55:32.786Z,100601.70
2019-01-08T08:56:39.499Z,100603.38
2019-01-08T08:57:46.508Z,100616.50
2019-01-08T08:58:53.492Z,100619.86
2019-01-08T09:00:00.206Z,100618.55
2019-01-08T09:01:07.513Z,100601.53
2019-01-08T09:02:15.916Z,100617.64
2019-01-08T09:03:22.985Z,100612.55
2019-01-08T09:04:29.841Z,100621.43
2019-01-08T09:05:36.838Z,100614.96
2019-01-08T09:06:43.861Z,100617.05
2019-01-08T09:07:50.607Z,100619.58
2019-01-08T09:08:57.272Z,100617.84
2019-01-08T09:10:03.898Z,100613.11
2019-01-08T09:11:11.105Z,100625.44
2019-01-08T09:12:17.768Z,100621.19
2019-01-08T09:13:24.814Z,100625.44
2019-01-08T09:14:31.485Z,100622.45
2019-01-08T09:15:38.499Z,100629.19
2019-01-08T09:16:46.148Z,100630.01
2019-01-08T09:17:52.814Z,100623.26
2019-01-08T09:18:59.536Z,100629.17
2019-01-08T09:20:06.962Z,100630.01
2019-01-08T09:21:13.624Z,100624.06
2019-01-08T09:22:20.951Z,100621.52
2019-01-08T09:23:27.624Z,100629.16
2019-01-08T09:24:34.567Z,100627.45
2019-01-08T09:25:41.497Z,100621.50
2019-01-08T09:26:48.199Z,100629.14
2019-01-08T09:27:54.986Z,100625.27
2019-01-08T09:29:01.664Z,100630.34
2019-01-08T09:30:10.221Z,100621.42
2019-01-08T09:31:17.175Z,100618.48
2019-01-08T09:32:24.116Z,100620.59
2019-01-08T09:33:30.808Z,100622.24
2019-01-08T09:34:37.773Z,100628.20
2019-01-08T09:35:45.142Z,100639.15
2019-01-08T09:36:52.427Z,100633.20
2019-01-08T09:37:59.545Z,100637.52
2019-01-08T09:39:08.031Z,100642.62
2019-01-08T09:40:15.613Z,100638.39
2019-01-08T09:41:22.260Z,100632.86
2019-01-08T09:42:29.314Z,100644.80
2019-01-08T09:43:36.336Z,100646.94
2019-01-08T09:44:43.004Z,100653.34
2019-01-08T09:45:50.182Z,100645.25
2019-01-08T09:46:56.843Z,100654.19
2019-01-08T09:48:03.557Z,100640.16
2019-01-08T09:49:10.571Z,100648.62
2019-01-08T09:50:17.527Z,100646.47
2019-01-08T09:51:24.518Z,100660.41
2019-01-08T09:52:31.209Z,100645.12
2019-01-08T09:53:38.192Z,100663.42
2019-01-08T09:54:45.219Z,100649.88
2019-01-08T09:55:52.100Z,100648.16
2019-01-08T09:56:59.090Z,100655.35
2019-01-08T09:58:05.995Z,100646.44
2019-01-08T09:59:12.667Z,100654.50
2019-01-08T10:00:19.939Z,100651.88
2019-01-08T10:01:26.772Z,100656.48
2019-01-08T10:02:34.222Z,100658.20
2019-01-08T10:03:40.883Z,100656.03
2019-01-08T10:04:47.936Z,100666.22
2019-01-08T10:05:56.512Z,100661.60
2019-01-08T10:07:03.323Z,100659.45
2019-01-08T10:08:10.077Z,100662.88
2019-01-08T10:09:17.115Z,100657.75
2019-01-08T10:10:23.933Z,100665.87
2019-01-08T10:11:30.573Z,100667.14
2019-01-08T10:12:37.599Z,100665.42
2019-01-08T10:13:44.549Z,100660.77
2019-01-08T10:14:51.306Z,100668.43
2019-01-08T10:15:58.580Z,100678.63
2019-01-08T10:17:05.555Z,100662.84
2019-01-08T10:18:13.436Z,100666.64
2019-01-08T10:19:20.144Z,100668.30
2019-01-08T10:20:26.941Z,100657.25
2019-01-08T10:21:33.605Z,100657.58
2019-01-08T10:22:40.608Z,100668.61
2019-01-08T10:23:47.240Z,100665.23
2019-01-08T10:24:54.485Z,100671.08
2019-01-08T10:26:01.503Z,100671.95
2019-01-08T10:27:08.195Z,100674.87
2019-01-08T10:28:14.899Z,100674.02
2019-01-08T10:29:21.562Z,100673.22
2019-01-08T10:30:28.250Z,100673.58
2019-01-08T10:31:34.963Z,100684.22
2019-01-08T10:32:41.948Z,100671.88
2019-01-08T10:33:49.314Z,100680.77
2019-01-08T10:34:56.122Z,100695.69
2019-01-08T10:36:03.197Z,100703.73
2019-01-08T10:37:10.693Z,100688.44
2019-01-08T10:38:17.366Z,100685.00
2019-01-08T10:39:24.102Z,100689.23
2019-01-08T10:40:31.331Z,100695.59
2019-01-08T10:41:38.858Z,100684.55
2019-01-08T10:42:46.498Z,100696.43
2019-01-08T10:43:53.732Z,100687.92
2019-01-08T10:45:01.123Z,100716.88
2019-01-08T10:46:07.878Z,100700.67
2019-01-08T10:47:14.499Z,100691.20
2019-01-08T10:48:21.129Z,100704.32
2019-01-08T10:49:27.838Z,100703.05
2019-01-08T10:50:34.665Z,100700.08
2019-01-08T10:51:41.407Z,100692.86
2019-01-08T10:52:48.113Z,100707.84
2019-01-08T10:53:55.082Z,100693.80
2019-01-08T10:55:01.812Z,100706.11
2019-01-08T10:56:08.507Z,100701.03
2019-01-08T10:57:15.173Z,100700.64
2019-01-08T10:58:22.140Z,100696.82
2019-01-08T10:59:29.212Z,100710.78
2019-01-08T11:00:36.135Z,100711.30
2019-01-08T11:01:42.774Z,100705.29
2019-01-08T11:02:49.793Z,100697.14
2019-01-08T11:03:56.450Z,100702.18
2019-01-08T11:05:03.525Z,100693.66
2019-01-08T11:06:10.636Z,100685.13
2019-01-08T11:07:17.704Z,100694.84
2019-01-08T11:08:24.370Z,100693.47
2019-01-08T11:09:31.602Z,100695.61
2019-01-08T11:10:38.282Z,100696.91
2019-01-08T11:11:44.990Z,100709.56
2019-01-08T11:12:51.627Z,100700.23
2019-01-08T11:13:58.591Z,100704.45
2019-01-08T11:15:05.961Z,100699.38
2019-01-08T11:16:12.625Z,100703.52
2019-01-08T11:17:19.296Z,100710.20
2019-01-08T11:18:25.993Z,100701.98
2019-01-08T11:19:32.709Z,100723.59
2019-01-08T11:20:39.421Z,100732.52
2019-01-08T11:21:46.401Z,100715.66
2019-01-08T11:22:53.410Z,100731.55
2019-01-08T11:24:00.615Z,100711.97
2019-01-08T11:25:07.731Z,100715.94
2019-01-08T11:26:14.714Z,100724.14
2019-01-08T11:27:21.407Z,100729.23
2019-01-08T11:28:28.092Z,100724.95
2019-01-08T11:29:34.755Z,100713.95
2019-01-08T11:30:41.504Z,100716.53
2019-01-08T11:31:49.184Z,100718.37
2019-01-08T11:32:56.080Z,100693.59
2019-01-08T11:34:03.065Z,100705.50
2019-01-08T11:35:10.059Z,100708.09
2019-01-08T11:36:16.804Z,100723.00
2019-01-08T11:37:23.909Z,100730.20
2019-01-08T11:38:30.563Z,100727.28
2019-01-08T11:39:37.243Z,100721.75
2019-01-08T11:40:43.918Z,100720.23
2019-01-08T11:41:50.611Z,100716.78
2019-01-08T11:42:57.260Z,100713.80
2019-01-08T11:44:03.941Z,100719.45
2019-01-08T11:45:11.827Z,100721.64
2019-01-08T11:46:18.507Z,100716.59
2019-01-08T11:47:25.215Z,100707.41
2019-01-08T11:48:31.925Z,100732.58
2019-01-08T11:49:39.275Z,100736.52
2019-01-08T11:50:46.388Z,100753.59
2019-01-08T11:51:53.589Z,100747.77
2019-01-08T11:53:00.296Z,100722.51
2019-01-08T11:54:07.013Z,100716.72
2019-01-08T11:55:13.684Z,100702.80
2019-01-08T11:56:20.706Z,100706.70
2019-01-08T11:57:27.388Z,100702.98
2019-01-08T11:58:34.155Z,100711.08
2019-01-08T11:59:40.876Z,100710.25
2019-01-08T12:00:47.531Z,100707.70
2019-01-08T12:01:57.420Z,100709.88
2019-01-08T12:03:04.915Z,100710.69
2019-01-08T12:04:11.624Z,100711.08
2019-01-08T12:05:18.291Z,100705.14
2019-01-08T12:06:25.322Z,100699.52
2019-01-08T12:07:31.973Z,100691.43
2019-01-08T12:08:38.936Z,100697.72
2019-01-08T12:09:45.794Z,100691.34
2019-01-08T12:10:52.536Z,100686.22
2019-01-08T12:11:59.193Z,100685.72
2019-01-08T12:13:05.925Z,100680.23
2019-01-08T12:14:15.881Z,100682.71
2019-01-08T12:15:22.598Z,100678.48
2019-01-08T12:16:29.237Z,100682.22
2019-01-08T12:17:37.090Z,100685.94
2019-01-08T12:18:44.056Z,100693.48
2019-01-08T12:19:51.052Z,100687.47
2019-01-08T12:20:58.299Z,100704.91
2019-01-08T12:22:05.239Z,100707.43
2019-01-08T12:23:12.273Z,100700.25
2019-01-08T12:24:19.329Z,100708.74
2019-01-08T12:25:26.271Z,100728.22
2019-01-08T12:26:33.244Z,100718.03
2019-01-08T12:27:40.355Z,100732.56
2019-01-08T12:28:47.023Z,100741.27
2019-01-08T12:29:54.016Z,100740.77
2019-01-08T12:31:00.707Z,100714.20
2019-01-08T12:32:07.522Z,100696.94
2019-01-08T12:33:14.572Z,100705.92
2019-01-08T12:34:21.550Z,100695.80
2019-01-08T12:35:28.604Z,100703.44
2019-01-08T12:36:35.290Z,100715.70
2019-01-08T12:37:42.275Z,100704.27
2019-01-08T12:38:50.021Z,100715.71
2019-01-08T12:39:57.199Z,100700.06
2019-01-08T12:41:04.207Z,100704.31
2019-01-08T12:42:10.878Z,100703.05
2019-01-08T12:43:17.605Z,100710.68
2019-01-08T12:44:24.749Z,100711.11